sensor_id;sensor_type;location;lat;lon;timestamp;P1;durP1;ratioP1;P2;durP2;ratioP2
49722;SDS011;43484;43.608;1.458;2023-05-24T00:02:09;3.33;;;2.60;;
49722;SDS011;43484;43.608;1.458;2023-05-24T00:04:39;2.47;;;2.10;;
49722;SDS011;43484;43.608;1.458;2023-05-24T00:07:07;3.30;;;2.25;;
49722;SDS011;43484;43.608;1.458;2023-05-24T00:09:34;4.22;;;2.30;;
49722;SDS011;43484;43.608;1.458;2023-05-24T00:12:01;5.13;;;1.92;;
49722;SDS011;43484;43.608;1.458;2023-05-24T00:14:28;3.55;;;2.00;;
49722;SDS011;43484;43.608;1.458;2023-05-24T00:16:55;5.50;;;2.40;;
49722;SDS011;43484;43.608;1.458;2023-05-24T00:19:22;6.28;;;2.45;;
49722;SDS011;43484;43.608;1.458;2023-05-24T00:21:49;3.75;;;2.10;;
49722;SDS011;43484;43.608;1.458;2023-05-24T00:24:16;2.55;;;2.22;;
49722;SDS011;43484;43.608;1.458;2023-05-24T00:26:42;4.47;;;2.40;;
49722;SDS011;43484;43.608;1.458;2023-05-24T00:29:10;2.45;;;1.92;;
49722;SDS011;43484;43.608;1.458;2023-05-24T00:31:37;2.90;;;1.80;;
49722;SDS011;43484;43.608;1.458;2023-05-24T00:34:04;3.15;;;1.98;;
49722;SDS011;43484;43.608;1.458;2023-05-24T00:36:31;3.97;;;2.08;;
49722;SDS011;43484;43.608;1.458;2023-05-24T00:38:58;3.95;;;2.60;;
49722;SDS011;43484;43.608;1.458;2023-05-24T00:41:25;4.78;;;2.25;;
49722;SDS011;43484;43.608;1.458;2023-05-24T00:43:52;5.13;;;2.80;;
49722;SDS011;43484;43.608;1.458;2023-05-24T00:46:28;5.43;;;2.55;;
49722;SDS011;43484;43.608;1.458;2023-05-24T00:48:57;3.80;;;2.70;;
49722;SDS011;43484;43.608;1.458;2023-05-24T00:51:25;4.82;;;2.47;;
49722;SDS011;43484;43.608;1.458;2023-05-24T00:53:53;4.28;;;2.97;;
49722;SDS011;43484;43.608;1.458;2023-05-24T00:56:20;5.00;;;2.80;;
49722;SDS011;43484;43.608;1.458;2023-05-24T00:58:48;4.32;;;2.78;;
49722;SDS011;43484;43.608;1.458;2023-05-24T01:01:19;3.63;;;3.20;;
49722;SDS011;43484;43.608;1.458;2023-05-24T01:03:47;7.25;;;3.00;;
49722;SDS011;43484;43.608;1.458;2023-05-24T01:06:13;2.50;;;2.30;;
49722;SDS011;43484;43.608;1.458;2023-05-24T01:08:46;3.95;;;2.80;;
49722;SDS011;43484;43.608;1.458;2023-05-24T01:15:16;6.35;;;2.88;;
49722;SDS011;43484;43.608;1.458;2023-05-24T01:17:45;2.53;;;2.22;;
49722;SDS011;43484;43.608;1.458;2023-05-24T01:20:31;3.50;;;2.50;;
49722;SDS011;43484;43.608;1.458;2023-05-24T01:23:03;3.55;;;2.35;;
49722;SDS011;43484;43.608;1.458;2023-05-24T01:28:33;3.83;;;2.28;;
49722;SDS011;43484;43.608;1.458;2023-05-24T01:31:01;4.68;;;2.40;;
49722;SDS011;43484;43.608;1.458;2023-05-24T01:33:29;4.95;;;1.88;;
49722;SDS011;43484;43.608;1.458;2023-05-24T01:35:58;2.63;;;2.42;;
49722;SDS011;43484;43.608;1.458;2023-05-24T01:38:25;4.38;;;2.50;;
49722;SDS011;43484;43.608;1.458;2023-05-24T01:40:55;2.78;;;2.50;;
49722;SDS011;43484;43.608;1.458;2023-05-24T01:43:36;6.32;;;2.53;;
49722;SDS011;43484;43.608;1.458;2023-05-24T01:46:24;3.92;;;2.60;;
49722;SDS011;43484;43.608;1.458;2023-05-24T01:49:01;3.08;;;2.42;;
49722;SDS011;43484;43.608;1.458;2023-05-24T01:54:19;3.50;;;2.83;;
49722;SDS011;43484;43.608;1.458;2023-05-24T01:56:48;3.72;;;2.80;;
49722;SDS011;43484;43.608;1.458;2023-05-24T01:59:18;4.55;;;3.35;;
49722;SDS011;43484;43.608;1.458;2023-05-24T02:01:47;3.10;;;2.80;;
49722;SDS011;43484;43.608;1.458;2023-05-24T02:04:15;6.35;;;2.75;;
49722;SDS011;43484;43.608;1.458;2023-05-24T02:06:42;6.75;;;3.47;;
49722;SDS011;43484;43.608;1.458;2023-05-24T02:09:09;4.95;;;3.38;;
49722;SDS011;43484;43.608;1.458;2023-05-24T02:11:35;3.97;;;3.15;;
49722;SDS011;43484;43.608;1.458;2023-05-24T02:14:02;3.63;;;3.10;;
49722;SDS011;43484;43.608;1.458;2023-05-24T02:16:29;3.42;;;3.08;;
49722;SDS011;43484;43.608;1.458;2023-05-24T02:18:56;4.22;;;3.50;;
49722;SDS011;43484;43.608;1.458;2023-05-24T02:21:23;4.50;;;3.10;;
49722;SDS011;43484;43.608;1.458;2023-05-24T02:23:51;7.80;;;3.38;;
49722;SDS011;43484;43.608;1.458;2023-05-24T02:26:17;6.45;;;3.85;;
49722;SDS011;43484;43.608;1.458;2023-05-24T02:28:45;5.88;;;3.08;;
49722;SDS011;43484;43.608;1.458;2023-05-24T02:31:14;4.22;;;3.20;;
49722;SDS011;43484;43.608;1.458;2023-05-24T02:33:40;9.02;;;3.40;;
49722;SDS011;43484;43.608;1.458;2023-05-24T02:36:07;5.43;;;2.90;;
49722;SDS011;43484;43.608;1.458;2023-05-24T02:38:34;5.65;;;2.88;;
49722;SDS011;43484;43.608;1.458;2023-05-24T02:41:02;7.75;;;3.45;;
49722;SDS011;43484;43.608;1.458;2023-05-24T02:43:29;5.82;;;3.28;;
49722;SDS011;43484;43.608;1.458;2023-05-24T02:45:55;4.93;;;3.03;;
49722;SDS011;43484;43.608;1.458;2023-05-24T02:48:22;6.63;;;3.70;;
49722;SDS011;43484;43.608;1.458;2023-05-24T02:50:49;6.15;;;3.22;;
49722;SDS011;43484;43.608;1.458;2023-05-24T02:53:16;5.13;;;3.22;;
49722;SDS011;43484;43.608;1.458;2023-05-24T02:55:43;5.43;;;3.20;;
49722;SDS011;43484;43.608;1.458;2023-05-24T02:58:11;5.88;;;3.15;;
49722;SDS011;43484;43.608;1.458;2023-05-24T03:00:38;8.18;;;4.10;;
49722;SDS011;43484;43.608;1.458;2023-05-24T03:03:05;4.35;;;3.63;;
49722;SDS011;43484;43.608;1.458;2023-05-24T03:05:32;3.90;;;3.20;;
49722;SDS011;43484;43.608;1.458;2023-05-24T03:07:58;7.00;;;3.22;;
49722;SDS011;43484;43.608;1.458;2023-05-24T03:10:25;7.28;;;2.97;;
49722;SDS011;43484;43.608;1.458;2023-05-24T03:12:52;6.90;;;3.60;;
49722;SDS011;43484;43.608;1.458;2023-05-24T03:15:18;3.70;;;3.08;;
49722;SDS011;43484;43.608;1.458;2023-05-24T03:17:45;3.80;;;3.30;;
49722;SDS011;43484;43.608;1.458;2023-05-24T03:20:12;4.00;;;3.30;;
49722;SDS011;43484;43.608;1.458;2023-05-24T03:22:38;5.93;;;4.10;;
49722;SDS011;43484;43.608;1.458;2023-05-24T03:25:05;4.43;;;3.53;;
49722;SDS011;43484;43.608;1.458;2023-05-24T03:27:34;4.20;;;3.42;;
49722;SDS011;43484;43.608;1.458;2023-05-24T03:30:01;4.43;;;3.55;;
49722;SDS011;43484;43.608;1.458;2023-05-24T03:32:28;5.47;;;3.45;;
49722;SDS011;43484;43.608;1.458;2023-05-24T03:34:55;10.00;;;4.50;;
49722;SDS011;43484;43.608;1.458;2023-05-24T03:37:22;6.85;;;3.88;;
49722;SDS011;43484;43.608;1.458;2023-05-24T03:39:49;7.22;;;4.25;;
49722;SDS011;43484;43.608;1.458;2023-05-24T03:42:16;8.40;;;4.20;;
49722;SDS011;43484;43.608;1.458;2023-05-24T03:44:42;5.20;;;3.55;;
49722;SDS011;43484;43.608;1.458;2023-05-24T03:47:09;8.38;;;4.75;;
49722;SDS011;43484;43.608;1.458;2023-05-24T03:49:36;7.07;;;4.00;;
49722;SDS011;43484;43.608;1.458;2023-05-24T03:52:02;8.13;;;3.92;;
49722;SDS011;43484;43.608;1.458;2023-05-24T03:54:29;7.57;;;3.90;;
49722;SDS011;43484;43.608;1.458;2023-05-24T03:56:56;6.95;;;4.20;;
49722;SDS011;43484;43.608;1.458;2023-05-24T03:59:22;6.90;;;4.60;;
49722;SDS011;43484;43.608;1.458;2023-05-24T04:01:49;5.15;;;4.30;;
49722;SDS011;43484;43.608;1.458;2023-05-24T04:04:16;9.60;;;4.35;;
49722;SDS011;43484;43.608;1.458;2023-05-24T04:06:42;7.68;;;3.95;;
49722;SDS011;43484;43.608;1.458;2023-05-24T04:09:09;7.68;;;4.38;;
49722;SDS011;43484;43.608;1.458;2023-05-24T04:11:36;12.35;;;4.78;;
49722;SDS011;43484;43.608;1.458;2023-05-24T04:14:02;4.97;;;4.32;;
49722;SDS011;43484;43.608;1.458;2023-05-24T04:16:29;7.78;;;4.07;;
49722;SDS011;43484;43.608;1.458;2023-05-24T04:18:59;7.85;;;4.68;;
49722;SDS011;43484;43.608;1.458;2023-05-24T04:21:29;4.68;;;4.10;;
49722;SDS011;43484;43.608;1.458;2023-05-24T04:23:57;4.32;;;3.90;;
49722;SDS011;43484;43.608;1.458;2023-05-24T04:26:27;7.40;;;4.85;;
49722;SDS011;43484;43.608;1.458;2023-05-24T04:28:55;5.80;;;4.68;;
49722;SDS011;43484;43.608;1.458;2023-05-24T04:31:22;4.28;;;3.53;;
49722;SDS011;43484;43.608;1.458;2023-05-24T04:33:49;5.13;;;4.63;;
49722;SDS011;43484;43.608;1.458;2023-05-24T04:36:15;5.00;;;4.40;;
49722;SDS011;43484;43.608;1.458;2023-05-24T04:38:42;5.63;;;4.18;;
49722;SDS011;43484;43.608;1.458;2023-05-24T04:41:11;7.30;;;5.15;;
49722;SDS011;43484;43.608;1.458;2023-05-24T04:43:38;7.80;;;4.50;;
49722;SDS011;43484;43.608;1.458;2023-05-24T04:46:05;5.45;;;4.88;;
49722;SDS011;43484;43.608;1.458;2023-05-24T04:48:34;9.57;;;4.45;;
49722;SDS011;43484;43.608;1.458;2023-05-24T04:51:01;10.18;;;5.28;;
49722;SDS011;43484;43.608;1.458;2023-05-24T04:53:28;6.85;;;4.85;;
49722;SDS011;43484;43.608;1.458;2023-05-24T04:55:54;7.82;;;4.80;;
49722;SDS011;43484;43.608;1.458;2023-05-24T04:58:21;7.25;;;4.93;;
49722;SDS011;43484;43.608;1.458;2023-05-24T05:00:47;5.53;;;4.70;;
49722;SDS011;43484;43.608;1.458;2023-05-24T05:03:14;6.13;;;5.35;;
49722;SDS011;43484;43.608;1.458;2023-05-24T05:05:41;6.30;;;4.45;;
49722;SDS011;43484;43.608;1.458;2023-05-24T05:08:08;5.75;;;5.25;;
49722;SDS011;43484;43.608;1.458;2023-05-24T05:10:35;6.20;;;5.35;;
49722;SDS011;43484;43.608;1.458;2023-05-24T05:13:02;7.20;;;5.10;;
49722;SDS011;43484;43.608;1.458;2023-05-24T05:15:28;7.55;;;5.20;;
49722;SDS011;43484;43.608;1.458;2023-05-24T05:17:55;6.30;;;5.65;;
49722;SDS011;43484;43.608;1.458;2023-05-24T05:20:22;7.70;;;5.45;;
49722;SDS011;43484;43.608;1.458;2023-05-24T05:22:49;9.10;;;5.88;;
49722;SDS011;43484;43.608;1.458;2023-05-24T05:25:16;8.15;;;5.43;;
49722;SDS011;43484;43.608;1.458;2023-05-24T05:27:43;6.75;;;6.05;;
49722;SDS011;43484;43.608;1.458;2023-05-24T05:30:10;8.07;;;6.10;;
49722;SDS011;43484;43.608;1.458;2023-05-24T05:32:37;7.47;;;6.20;;
49722;SDS011;43484;43.608;1.458;2023-05-24T05:35:04;9.60;;;6.85;;
49722;SDS011;43484;43.608;1.458;2023-05-24T05:37:31;8.55;;;7.10;;
49722;SDS011;43484;43.608;1.458;2023-05-24T05:39:57;9.73;;;7.57;;
49722;SDS011;43484;43.608;1.458;2023-05-24T05:42:24;8.45;;;7.03;;
49722;SDS011;43484;43.608;1.458;2023-05-24T05:44:51;8.38;;;7.50;;
49722;SDS011;43484;43.608;1.458;2023-05-24T05:47:18;11.32;;;8.20;;
49722;SDS011;43484;43.608;1.458;2023-05-24T05:49:44;11.18;;;7.35;;
49722;SDS011;43484;43.608;1.458;2023-05-24T05:52:11;11.75;;;7.55;;
49722;SDS011;43484;43.608;1.458;2023-05-24T05:54:37;12.30;;;8.07;;
49722;SDS011;43484;43.608;1.458;2023-05-24T05:57:04;11.85;;;8.13;;
49722;SDS011;43484;43.608;1.458;2023-05-24T05:59:33;10.05;;;8.00;;
49722;SDS011;43484;43.608;1.458;2023-05-24T06:02:02;12.25;;;8.18;;
49722;SDS011;43484;43.608;1.458;2023-05-24T06:04:29;10.00;;;7.88;;
49722;SDS011;43484;43.608;1.458;2023-05-24T06:06:56;7.85;;;6.93;;
49722;SDS011;43484;43.608;1.458;2023-05-24T06:09:23;8.98;;;7.47;;
49722;SDS011;43484;43.608;1.458;2023-05-24T06:11:50;12.45;;;8.02;;
49722;SDS011;43484;43.608;1.458;2023-05-24T06:14:16;11.48;;;8.02;;
49722;SDS011;43484;43.608;1.458;2023-05-24T06:16:43;9.55;;;7.38;;
49722;SDS011;43484;43.608;1.458;2023-05-24T06:19:11;10.20;;;7.50;;
49722;SDS011;43484;43.608;1.458;2023-05-24T06:21:39;9.90;;;7.93;;
49722;SDS011;43484;43.608;1.458;2023-05-24T06:24:15;10.10;;;7.95;;
49722;SDS011;43484;43.608;1.458;2023-05-24T06:29:13;11.90;;;8.15;;
49722;SDS011;43484;43.608;1.458;2023-05-24T06:31:40;10.13;;;7.80;;
49722;SDS011;43484;43.608;1.458;2023-05-24T06:34:08;11.13;;;7.85;;
49722;SDS011;43484;43.608;1.458;2023-05-24T06:36:35;11.60;;;7.40;;
49722;SDS011;43484;43.608;1.458;2023-05-24T06:39:06;11.65;;;8.20;;
49722;SDS011;43484;43.608;1.458;2023-05-24T06:41:36;15.05;;;7.80;;
49722;SDS011;43484;43.608;1.458;2023-05-24T06:44:04;9.18;;;7.40;;
49722;SDS011;43484;43.608;1.458;2023-05-24T06:46:31;10.77;;;7.45;;
49722;SDS011;43484;43.608;1.458;2023-05-24T06:48:58;12.07;;;7.82;;
49722;SDS011;43484;43.608;1.458;2023-05-24T06:51:25;10.52;;;7.95;;
49722;SDS011;43484;43.608;1.458;2023-05-24T06:53:51;8.30;;;7.43;;
49722;SDS011;43484;43.608;1.458;2023-05-24T06:56:18;13.80;;;8.10;;
49722;SDS011;43484;43.608;1.458;2023-05-24T06:58:45;11.73;;;9.00;;
49722;SDS011;43484;43.608;1.458;2023-05-24T07:01:12;10.30;;;7.90;;
49722;SDS011;43484;43.608;1.458;2023-05-24T07:03:39;13.02;;;8.05;;
49722;SDS011;43484;43.608;1.458;2023-05-24T07:06:06;13.95;;;8.48;;
49722;SDS011;43484;43.608;1.458;2023-05-24T07:08:35;11.18;;;7.15;;
49722;SDS011;43484;43.608;1.458;2023-05-24T07:11:02;11.43;;;7.82;;
49722;SDS011;43484;43.608;1.458;2023-05-24T07:13:29;11.27;;;8.68;;
49722;SDS011;43484;43.608;1.458;2023-05-24T07:15:56;17.63;;;9.63;;
49722;SDS011;43484;43.608;1.458;2023-05-24T07:18:22;14.95;;;8.68;;
49722;SDS011;43484;43.608;1.458;2023-05-24T07:20:49;13.77;;;9.45;;
49722;SDS011;43484;43.608;1.458;2023-05-24T07:23:16;19.23;;;9.68;;
49722;SDS011;43484;43.608;1.458;2023-05-24T07:25:42;15.30;;;9.13;;
49722;SDS011;43484;43.608;1.458;2023-05-24T07:28:09;10.75;;;8.18;;
49722;SDS011;43484;43.608;1.458;2023-05-24T07:30:36;13.75;;;9.85;;
49722;SDS011;43484;43.608;1.458;2023-05-24T07:33:04;13.38;;;8.82;;
49722;SDS011;43484;43.608;1.458;2023-05-24T07:35:31;14.57;;;8.88;;
49722;SDS011;43484;43.608;1.458;2023-05-24T07:37:58;12.18;;;8.63;;
49722;SDS011;43484;43.608;1.458;2023-05-24T07:40:25;11.57;;;9.05;;
49722;SDS011;43484;43.608;1.458;2023-05-24T07:42:51;13.07;;;7.97;;
49722;SDS011;43484;43.608;1.458;2023-05-24T07:45:18;10.90;;;7.15;;
49722;SDS011;43484;43.608;1.458;2023-05-24T07:47:45;12.25;;;8.40;;
49722;SDS011;43484;43.608;1.458;2023-05-24T07:50:12;11.82;;;7.97;;
49722;SDS011;43484;43.608;1.458;2023-05-24T07:52:39;10.02;;;7.32;;
49722;SDS011;43484;43.608;1.458;2023-05-24T07:55:05;9.27;;;7.95;;
49722;SDS011;43484;43.608;1.458;2023-05-24T07:57:33;8.98;;;7.60;;
49722;SDS011;43484;43.608;1.458;2023-05-24T07:59:59;13.90;;;8.02;;
49722;SDS011;43484;43.608;1.458;2023-05-24T08:02:32;19.33;;;8.30;;
49722;SDS011;43484;43.608;1.458;2023-05-24T08:05:00;8.52;;;7.20;;
49722;SDS011;43484;43.608;1.458;2023-05-24T08:07:26;9.75;;;7.35;;
49722;SDS011;43484;43.608;1.458;2023-05-24T08:09:54;13.57;;;7.68;;
49722;SDS011;43484;43.608;1.458;2023-05-24T08:12:21;12.73;;;7.35;;
49722;SDS011;43484;43.608;1.458;2023-05-24T08:14:47;7.43;;;6.63;;
49722;SDS011;43484;43.608;1.458;2023-05-24T08:17:14;9.43;;;6.70;;
49722;SDS011;43484;43.608;1.458;2023-05-24T08:19:41;10.40;;;7.40;;
49722;SDS011;43484;43.608;1.458;2023-05-24T08:22:07;10.32;;;7.38;;
49722;SDS011;43484;43.608;1.458;2023-05-24T08:24:35;12.40;;;7.47;;
49722;SDS011;43484;43.608;1.458;2023-05-24T08:27:02;8.90;;;7.10;;
49722;SDS011;43484;43.608;1.458;2023-05-24T08:29:29;9.55;;;7.40;;
49722;SDS011;43484;43.608;1.458;2023-05-24T08:31:56;9.82;;;7.68;;
49722;SDS011;43484;43.608;1.458;2023-05-24T08:34:23;9.25;;;7.07;;
49722;SDS011;43484;43.608;1.458;2023-05-24T08:36:50;9.38;;;7.43;;
49722;SDS011;43484;43.608;1.458;2023-05-24T08:39:16;8.38;;;7.57;;
49722;SDS011;43484;43.608;1.458;2023-05-24T08:41:43;8.70;;;7.85;;
49722;SDS011;43484;43.608;1.458;2023-05-24T08:44:22;11.50;;;8.10;;
49722;SDS011;43484;43.608;1.458;2023-05-24T08:46:51;11.15;;;8.10;;
49722;SDS011;43484;43.608;1.458;2023-05-24T08:49:20;10.43;;;8.43;;
49722;SDS011;43484;43.608;1.458;2023-05-24T08:51:46;10.05;;;8.50;;
49722;SDS011;43484;43.608;1.458;2023-05-24T08:54:15;14.73;;;8.63;;
49722;SDS011;43484;43.608;1.458;2023-05-24T08:56:41;14.43;;;9.10;;
49722;SDS011;43484;43.608;1.458;2023-05-24T08:59:08;10.25;;;8.57;;
49722;SDS011;43484;43.608;1.458;2023-05-24T09:01:36;12.38;;;9.75;;
49722;SDS011;43484;43.608;1.458;2023-05-24T09:04:06;10.35;;;8.73;;
49722;SDS011;43484;43.608;1.458;2023-05-24T09:06:34;14.55;;;8.88;;
49722;SDS011;43484;43.608;1.458;2023-05-24T09:09:02;11.05;;;9.18;;
49722;SDS011;43484;43.608;1.458;2023-05-24T09:11:30;15.10;;;9.82;;
49722;SDS011;43484;43.608;1.458;2023-05-24T09:13:57;13.52;;;10.07;;
49722;SDS011;43484;43.608;1.458;2023-05-24T09:16:26;12.38;;;9.43;;
49722;SDS011;43484;43.608;1.458;2023-05-24T09:18:53;13.25;;;10.55;;
49722;SDS011;43484;43.608;1.458;2023-05-24T09:21:19;12.02;;;10.77;;
49722;SDS011;43484;43.608;1.458;2023-05-24T09:23:47;12.38;;;9.13;;
49722;SDS011;43484;43.608;1.458;2023-05-24T09:26:14;12.55;;;9.63;;
49722;SDS011;43484;43.608;1.458;2023-05-24T09:28:41;13.18;;;10.10;;
49722;SDS011;43484;43.608;1.458;2023-05-24T09:31:09;14.23;;;10.20;;
49722;SDS011;43484;43.608;1.458;2023-05-24T09:33:35;13.27;;;9.98;;
49722;SDS011;43484;43.608;1.458;2023-05-24T09:36:04;11.05;;;9.63;;
49722;SDS011;43484;43.608;1.458;2023-05-24T09:38:32;9.90;;;8.65;;
49722;SDS011;43484;43.608;1.458;2023-05-24T09:41:02;13.02;;;9.98;;
49722;SDS011;43484;43.608;1.458;2023-05-24T09:43:31;12.15;;;8.98;;
49722;SDS011;43484;43.608;1.458;2023-05-24T09:46:02;14.00;;;9.88;;
49722;SDS011;43484;43.608;1.458;2023-05-24T09:48:30;10.52;;;8.88;;
49722;SDS011;43484;43.608;1.458;2023-05-24T09:53:32;14.77;;;9.02;;
49722;SDS011;43484;43.608;1.458;2023-05-24T09:56:02;11.43;;;8.50;;
49722;SDS011;43484;43.608;1.458;2023-05-24T09:58:29;9.38;;;8.25;;
49722;SDS011;43484;43.608;1.458;2023-05-24T10:01:06;9.07;;;8.02;;
49722;SDS011;43484;43.608;1.458;2023-05-24T10:03:34;12.95;;;8.10;;
49722;SDS011;43484;43.608;1.458;2023-05-24T10:06:04;11.63;;;8.27;;
49722;SDS011;43484;43.608;1.458;2023-05-24T10:08:33;9.38;;;7.55;;
49722;SDS011;43484;43.608;1.458;2023-05-24T10:11:01;10.63;;;7.90;;
49722;SDS011;43484;43.608;1.458;2023-05-24T10:13:32;11.80;;;7.88;;
49722;SDS011;43484;43.608;1.458;2023-05-24T10:16:02;12.63;;;8.10;;
49722;SDS011;43484;43.608;1.458;2023-05-24T10:18:29;19.05;;;8.27;;
49722;SDS011;43484;43.608;1.458;2023-05-24T10:20:55;12.15;;;7.43;;
49722;SDS011;43484;43.608;1.458;2023-05-24T10:23:24;10.15;;;7.63;;
49722;SDS011;43484;43.608;1.458;2023-05-24T10:26:12;8.88;;;6.75;;
49722;SDS011;43484;43.608;1.458;2023-05-24T10:28:43;8.02;;;6.53;;
49722;SDS011;43484;43.608;1.458;2023-05-24T10:31:23;7.30;;;6.57;;
49722;SDS011;43484;43.608;1.458;2023-05-24T10:33:54;8.30;;;6.68;;
49722;SDS011;43484;43.608;1.458;2023-05-24T10:36:33;7.65;;;6.60;;
49722;SDS011;43484;43.608;1.458;2023-05-24T10:39:00;8.52;;;6.35;;
49722;SDS011;43484;43.608;1.458;2023-05-24T10:41:27;7.70;;;6.65;;
49722;SDS011;43484;43.608;1.458;2023-05-24T10:43:54;7.47;;;6.38;;
49722;SDS011;43484;43.608;1.458;2023-05-24T10:46:35;7.95;;;6.75;;
49722;SDS011;43484;43.608;1.458;2023-05-24T10:49:02;9.23;;;7.45;;
49722;SDS011;43484;43.608;1.458;2023-05-24T10:56:39;15.02;;;9.15;;
49722;SDS011;43484;43.608;1.458;2023-05-24T10:59:08;9.50;;;7.90;;
49722;SDS011;43484;43.608;1.458;2023-05-24T11:01:35;12.02;;;7.88;;
49722;SDS011;43484;43.608;1.458;2023-05-24T11:09:17;11.95;;;8.70;;
49722;SDS011;43484;43.608;1.458;2023-05-24T11:11:48;9.60;;;8.07;;
49722;SDS011;43484;43.608;1.458;2023-05-24T11:14:21;12.02;;;8.88;;
49722;SDS011;43484;43.608;1.458;2023-05-24T11:16:49;12.77;;;7.95;;
49722;SDS011;43484;43.608;1.458;2023-05-24T11:19:23;12.80;;;8.63;;
49722;SDS011;43484;43.608;1.458;2023-05-24T11:21:56;14.63;;;8.75;;
49722;SDS011;43484;43.608;1.458;2023-05-24T11:24:24;12.75;;;9.13;;
49722;SDS011;43484;43.608;1.458;2023-05-24T11:26:52;9.80;;;8.10;;
49722;SDS011;43484;43.608;1.458;2023-05-24T11:29:19;11.43;;;9.10;;
49722;SDS011;43484;43.608;1.458;2023-05-24T11:31:53;12.30;;;9.63;;
49722;SDS011;43484;43.608;1.458;2023-05-24T11:34:30;12.75;;;9.50;;
49722;SDS011;43484;43.608;1.458;2023-05-24T11:36:58;10.85;;;8.57;;
49722;SDS011;43484;43.608;1.458;2023-05-24T11:39:32;16.73;;;9.48;;
49722;SDS011;43484;43.608;1.458;2023-05-24T11:42:05;11.68;;;9.45;;
49722;SDS011;43484;43.608;1.458;2023-05-24T11:44:33;16.20;;;9.20;;
49722;SDS011;43484;43.608;1.458;2023-05-24T11:47:04;12.88;;;8.73;;
49722;SDS011;43484;43.608;1.458;2023-05-24T11:49:32;11.02;;;9.02;;
49722;SDS011;43484;43.608;1.458;2023-05-24T11:52:00;12.65;;;10.48;;
49722;SDS011;43484;43.608;1.458;2023-05-24T11:54:28;12.90;;;9.63;;
49722;SDS011;43484;43.608;1.458;2023-05-24T11:56:57;13.02;;;8.88;;
49722;SDS011;43484;43.608;1.458;2023-05-24T11:59:24;13.00;;;9.70;;
49722;SDS011;43484;43.608;1.458;2023-05-24T12:02:02;11.85;;;8.88;;
49722;SDS011;43484;43.608;1.458;2023-05-24T12:04:30;13.45;;;9.35;;
49722;SDS011;43484;43.608;1.458;2023-05-24T12:06:57;13.68;;;9.68;;
49722;SDS011;43484;43.608;1.458;2023-05-24T12:09:25;14.55;;;9.77;;
49722;SDS011;43484;43.608;1.458;2023-05-24T12:11:52;12.18;;;10.43;;
49722;SDS011;43484;43.608;1.458;2023-05-24T12:16:53;13.85;;;11.07;;
49722;SDS011;43484;43.608;1.458;2023-05-24T12:19:22;17.30;;;11.05;;
49722;SDS011;43484;43.608;1.458;2023-05-24T12:22:00;15.77;;;10.95;;
49722;SDS011;43484;43.608;1.458;2023-05-24T12:24:30;15.52;;;10.25;;
49722;SDS011;43484;43.608;1.458;2023-05-24T12:27:03;14.30;;;10.38;;
49722;SDS011;43484;43.608;1.458;2023-05-24T12:29:35;13.52;;;9.35;;
49722;SDS011;43484;43.608;1.458;2023-05-24T12:32:04;16.45;;;10.68;;
49722;SDS011;43484;43.608;1.458;2023-05-24T12:34:31;13.00;;;10.23;;
49722;SDS011;43484;43.608;1.458;2023-05-24T12:36:58;16.13;;;10.18;;
49722;SDS011;43484;43.608;1.458;2023-05-24T12:39:29;17.38;;;10.93;;
49722;SDS011;43484;43.608;1.458;2023-05-24T12:42:02;12.07;;;9.75;;
49722;SDS011;43484;43.608;1.458;2023-05-24T12:44:33;14.57;;;10.32;;
49722;SDS011;43484;43.608;1.458;2023-05-24T12:47:02;15.52;;;10.20;;
49722;SDS011;43484;43.608;1.458;2023-05-24T12:49:30;12.73;;;10.55;;
49722;SDS011;43484;43.608;1.458;2023-05-24T12:51:57;16.98;;;11.30;;
49722;SDS011;43484;43.608;1.458;2023-05-24T12:54:25;13.15;;;10.23;;
49722;SDS011;43484;43.608;1.458;2023-05-24T12:56:54;13.07;;;10.45;;
49722;SDS011;43484;43.608;1.458;2023-05-24T12:59:23;14.05;;;10.70;;
49722;SDS011;43484;43.608;1.458;2023-05-24T13:01:51;13.40;;;10.18;;
49722;SDS011;43484;43.608;1.458;2023-05-24T13:04:19;12.48;;;10.35;;
49722;SDS011;43484;43.608;1.458;2023-05-24T13:06:47;16.65;;;10.82;;
49722;SDS011;43484;43.608;1.458;2023-05-24T13:09:14;13.57;;;10.48;;
49722;SDS011;43484;43.608;1.458;2023-05-24T13:11:44;14.38;;;10.40;;
49722;SDS011;43484;43.608;1.458;2023-05-24T13:14:12;16.25;;;11.07;;
49722;SDS011;43484;43.608;1.458;2023-05-24T13:16:40;16.55;;;10.88;;
49722;SDS011;43484;43.608;1.458;2023-05-24T13:19:07;13.30;;;10.40;;
49722;SDS011;43484;43.608;1.458;2023-05-24T13:21:34;12.93;;;10.43;;
49722;SDS011;43484;43.608;1.458;2023-05-24T13:24:01;13.70;;;10.73;;
49722;SDS011;43484;43.608;1.458;2023-05-24T13:26:28;15.40;;;10.93;;
49722;SDS011;43484;43.608;1.458;2023-05-24T13:28:55;17.05;;;11.57;;
49722;SDS011;43484;43.608;1.458;2023-05-24T13:31:26;14.85;;;10.95;;
49722;SDS011;43484;43.608;1.458;2023-05-24T13:33:53;15.00;;;11.30;;
49722;SDS011;43484;43.608;1.458;2023-05-24T13:36:20;17.10;;;12.75;;
49722;SDS011;43484;43.608;1.458;2023-05-24T13:38:47;20.92;;;12.48;;
49722;SDS011;43484;43.608;1.458;2023-05-24T13:41:27;19.50;;;12.88;;
49722;SDS011;43484;43.608;1.458;2023-05-24T13:43:54;16.90;;;12.65;;
49722;SDS011;43484;43.608;1.458;2023-05-24T13:46:21;16.75;;;12.40;;
49722;SDS011;43484;43.608;1.458;2023-05-24T13:48:48;15.38;;;12.95;;
49722;SDS011;43484;43.608;1.458;2023-05-24T13:51:14;15.32;;;12.25;;
49722;SDS011;43484;43.608;1.458;2023-05-24T13:53:43;20.25;;;12.07;;
49722;SDS011;43484;43.608;1.458;2023-05-24T13:56:10;16.50;;;12.45;;
49722;SDS011;43484;43.608;1.458;2023-05-24T13:58:37;16.80;;;12.68;;
49722;SDS011;43484;43.608;1.458;2023-05-24T14:01:03;22.50;;;11.90;;
49722;SDS011;43484;43.608;1.458;2023-05-24T14:03:30;14.23;;;12.32;;
49722;SDS011;43484;43.608;1.458;2023-05-24T14:05:56;17.48;;;12.15;;
49722;SDS011;43484;43.608;1.458;2023-05-24T14:08:24;15.50;;;12.18;;
49722;SDS011;43484;43.608;1.458;2023-05-24T14:10:51;16.67;;;12.63;;
49722;SDS011;43484;43.608;1.458;2023-05-24T14:13:18;15.23;;;12.23;;
49722;SDS011;43484;43.608;1.458;2023-05-24T14:16:06;14.88;;;11.88;;
49722;SDS011;43484;43.608;1.458;2023-05-24T14:18:34;17.73;;;12.57;;
49722;SDS011;43484;43.608;1.458;2023-05-24T14:21:01;14.05;;;12.43;;
49722;SDS011;43484;43.608;1.458;2023-05-24T14:23:29;18.00;;;11.50;;
49722;SDS011;43484;43.608;1.458;2023-05-24T14:25:57;15.82;;;11.90;;
49722;SDS011;43484;43.608;1.458;2023-05-24T14:28:25;15.52;;;12.80;;
49722;SDS011;43484;43.608;1.458;2023-05-24T14:30:52;14.77;;;11.55;;
49722;SDS011;43484;43.608;1.458;2023-05-24T14:33:18;20.48;;;12.07;;
49722;SDS011;43484;43.608;1.458;2023-05-24T14:35:45;14.68;;;11.52;;
49722;SDS011;43484;43.608;1.458;2023-05-24T14:38:12;14.57;;;11.68;;
49722;SDS011;43484;43.608;1.458;2023-05-24T14:40:39;16.52;;;11.18;;
49722;SDS011;43484;43.608;1.458;2023-05-24T14:43:06;19.38;;;11.80;;
49722;SDS011;43484;43.608;1.458;2023-05-24T14:45:36;17.30;;;11.30;;
49722;SDS011;43484;43.608;1.458;2023-05-24T14:48:04;17.00;;;11.50;;
49722;SDS011;43484;43.608;1.458;2023-05-24T14:50:31;20.02;;;11.95;;
49722;SDS011;43484;43.608;1.458;2023-05-24T14:52:58;13.27;;;11.55;;
49722;SDS011;43484;43.608;1.458;2023-05-24T14:55:26;12.40;;;10.48;;
49722;SDS011;43484;43.608;1.458;2023-05-24T14:57:53;13.38;;;10.60;;
49722;SDS011;43484;43.608;1.458;2023-05-24T15:00:19;18.73;;;11.38;;
49722;SDS011;43484;43.608;1.458;2023-05-24T15:02:49;12.35;;;10.90;;
49722;SDS011;43484;43.608;1.458;2023-05-24T15:05:16;14.02;;;10.43;;
49722;SDS011;43484;43.608;1.458;2023-05-24T15:07:43;14.88;;;11.38;;
49722;SDS011;43484;43.608;1.458;2023-05-24T15:10:09;11.50;;;10.13;;
49722;SDS011;43484;43.608;1.458;2023-05-24T15:12:36;17.50;;;10.00;;